createdAt,value
2022-11-05T00:06:28.241Z,11.32
2022-11-05T00:18:16.756Z,13.18
2022-11-05T00:22:23.506Z,9.13
2022-11-05T00:26:29.936Z,11.32
2022-11-05T00:30:27.289Z,7.87
2022-11-05T00:34:26.786Z,8.30
2022-11-05T00:42:18.604Z,9.30
2022-11-05T00:45:40.145Z,9.70
2022-11-05T00:49:34.791Z,9.40
2022-11-05T00:53:04.793Z,9.30
2022-11-05T00:56:22.992Z,7.93
2022-11-05T00:59:51.162Z,7.62
2022-11-05T01:03:01.847Z,8.35
2022-11-05T01:06:21.851Z,8.50
2022-11-05T01:09:43.814Z,7.67
2022-11-05T01:13:20.954Z,6.93
2022-11-05T01:17:16.043Z,7.12
2022-11-05T01:20:54.479Z,6.80
2022-11-05T01:24:22.866Z,7.27
2022-11-05T01:27:57.791Z,6.27
2022-11-05T01:31:07.049Z,6.05
2022-11-05T01:34:15.266Z,8.32
2022-11-05T01:37:50.043Z,8.13
2022-11-05T01:41:40.978Z,8.40
2022-11-05T01:45:35.833Z,6.60
2022-11-05T01:49:32.136Z,7.05
2022-11-05T01:53:40.861Z,8.13
2022-11-05T01:57:29.105Z,7.32
2022-11-05T02:01:03.869Z,7.20
2022-11-05T02:04:58.196Z,7.53
2022-11-05T02:09:11.897Z,5.75
2022-11-05T02:12:59.831Z,6.00
2022-11-05T02:17:06.121Z,6.10
2022-11-05T02:21:10.620Z,6.23
2022-11-05T02:25:18.294Z,4.83
2022-11-05T02:29:41.851Z,5.20
2022-11-05T02:33:42.689Z,4.62
2022-11-05T02:37:46.007Z,6.15
2022-11-05T02:41:14.457Z,6.33
2022-11-05T02:44:58.814Z,3.93
2022-11-05T02:48:42.058Z,4.80
2022-11-05T02:52:03.847Z,3.72
2022-11-05T02:55:22.625Z,4.78
2022-11-05T02:58:40.838Z,4.17
2022-11-05T03:01:50.571Z,6.27
2022-11-05T03:06:17.881Z,4.68
2022-11-05T03:14:44.352Z,5.18
2022-11-05T03:18:53.221Z,4.67
2022-11-05T03:22:56.145Z,4.83
2022-11-05T03:30:28.417Z,3.92
2022-11-05T03:34:00.117Z,5.25
2022-11-05T03:38:00.289Z,5.20
2022-11-05T03:41:57.854Z,4.43
2022-11-05T03:49:36.230Z,4.72
2022-11-05T03:53:37.589Z,5.95
2022-11-05T03:57:40.209Z,5.10
2022-11-05T04:01:33.375Z,4.67
2022-11-05T04:05:23.737Z,4.37
2022-11-05T04:13:12.097Z,6.15
2022-11-05T04:17:08.405Z,5.97
2022-11-05T04:24:51.049Z,5.20
2022-11-05T04:32:34.447Z,5.53
2022-11-05T04:36:03.333Z,5.67
2022-11-05T04:39:58.804Z,5.27
2022-11-05T04:43:42.514Z,7.62
2022-11-05T04:51:26.933Z,5.57
2022-11-05T04:54:29.138Z,8.00
2022-11-05T04:57:43.958Z,6.47
2022-11-05T05:06:09.846Z,7.00
2022-11-05T05:09:45.534Z,5.35
2022-11-05T06:19:22.982Z,6.20
2022-11-05T06:23:11.421Z,5.82
2022-11-05T06:27:06.183Z,6.03
2022-11-05T07:15:33.190Z,4.43
2022-11-05T11:11:41.060Z,5.90
2022-11-05T11:15:41.354Z,10.07
2022-11-05T11:40:26.274Z,8.07
2022-11-05T12:37:11.429Z,4.95
2022-11-05T12:40:43.126Z,5.50
2022-11-05T12:44:31.565Z,5.12
2022-11-05T14:17:33.515Z,5.07
2022-11-05T14:21:02.272Z,4.40
2022-11-05T14:28:39.690Z,5.20
2022-11-05T14:32:25.790Z,7.18
2022-11-05T14:36:42.323Z,4.22
2022-11-05T14:49:30.919Z,4.43
2022-11-05T16:00:41.583Z,6.60
2022-11-05T17:27:57.933Z,6.50
2022-11-05T17:39:39.551Z,4.57
2022-11-05T17:43:27.456Z,4.72
2022-11-05T17:46:58.812Z,5.10
2022-11-05T18:40:18.817Z,5.65
2022-11-05T18:47:53.969Z,5.62
2022-11-05T19:03:06.594Z,5.05
2022-11-05T19:07:11.033Z,4.57
2022-11-05T19:11:06.972Z,5.40
2022-11-05T19:14:29.206Z,7.50
2022-11-05T19:18:23.674Z,5.65
2022-11-05T19:22:12.902Z,5.82
2022-11-05T19:26:06.632Z,5.22
2022-11-05T19:41:27.739Z,5.70
2022-11-05T19:52:51.909Z,4.10
2022-11-05T19:56:38.833Z,4.37
2022-11-05T20:08:01.722Z,4.80
2022-11-05T20:11:49.675Z,5.50
2022-11-05T20:15:23.625Z,5.12
2022-11-05T20:18:33.532Z,5.93
2022-11-05T20:21:42.654Z,4.43
2022-11-05T20:48:39.672Z,3.13
2022-11-05T20:52:07.902Z,4.50
2022-11-05T20:55:44.733Z,3.90
2022-11-05T21:07:22.910Z,3.97
2022-11-05T21:11:19.733Z,6.37
2022-11-05T21:14:49.655Z,4.75
2022-11-05T21:18:26.328Z,4.55
2022-11-05T21:41:23.458Z,5.47
2022-11-05T21:49:35.003Z,5.68
2022-11-05T22:12:14.817Z,5.68
2022-11-05T22:15:49.682Z,5.50
2022-11-05T22:23:00.295Z,6.20
2022-11-05T22:26:34.913Z,6.30
2022-11-05T22:30:17.974Z,6.00
2022-11-05T22:33:55.626Z,5.60
2022-11-05T22:37:46.685Z,6.13
2022-11-05T22:41:36.972Z,8.20
2022-11-05T23:01:12.792Z,5.57
2022-11-05T23:05:01.098Z,4.57
2022-11-05T23:08:38.711Z,4.18
2022-11-05T23:27:37.802Z,5.25
2022-11-05T23:39:12.259Z,4.63
2022-11-05T23:46:43.412Z,4.55
2022-11-05T23:54:19.437Z,6.03
